createdAt,value
2022-11-04T00:01:47.091Z,100003.69
2022-11-04T00:04:16.982Z,100012.50
2022-11-04T00:06:44.365Z,100010.78
2022-11-04T00:09:15.990Z,100018.72
2022-11-04T00:12:01.589Z,100018.75
2022-11-04T00:14:30.303Z,100028.47
2022-11-04T00:17:16.635Z,100015.44
2022-11-04T00:20:02.353Z,100022.53
2022-11-04T00:22:47.959Z,100026.19
2022-11-04T00:25:33.427Z,100035.97
2022-11-04T00:28:36.658Z,100040.41
2022-11-04T00:31:27.369Z,100041.34
2022-11-04T00:33:57.747Z,100038.78
2022-11-04T00:36:26.176Z,100048.50
2022-11-04T00:38:53.747Z,100047.63
2022-11-04T00:41:27.646Z,100049.41
2022-11-04T00:44:05.379Z,100056.44
2022-11-04T00:46:34.460Z,100053.84
2022-11-04T00:49:01.756Z,100059.97
2022-11-04T00:51:29.054Z,100052.06
2022-11-04T00:53:58.297Z,100058.19
2022-11-04T00:56:25.403Z,100056.41
2022-11-04T00:58:52.443Z,100065.09
2022-11-04T01:01:20.494Z,100065.03
2022-11-04T01:03:53.078Z,100068.50
2022-11-04T01:06:23.004Z,100083.38
2022-11-04T01:08:55.059Z,100079.00
2022-11-04T01:11:22.117Z,100079.03
2022-11-04T01:13:52.602Z,100082.59
2022-11-04T01:16:20.549Z,100087.03
2022-11-04T01:18:47.961Z,100090.59
2022-11-04T01:21:16.603Z,100087.16
2022-11-04T01:23:45.083Z,100090.69
2022-11-04T01:26:19.774Z,100089.00
2022-11-04T01:28:46.849Z,100087.28
2022-11-04T01:31:18.464Z,100084.66
2022-11-04T01:33:45.625Z,100079.41
2022-11-04T01:36:13.080Z,100079.44
2022-11-04T01:38:40.697Z,100087.34
2022-11-04T01:41:09.298Z,100086.53
2022-11-04T01:44:24.469Z,100087.41
2022-11-04T01:46:54.029Z,100088.38
2022-11-04T01:49:40.660Z,100089.28
2022-11-04T01:52:18.195Z,100084.94
2022-11-04T01:54:48.499Z,100087.59
2022-11-04T01:57:34.603Z,100077.13
2022-11-04T02:00:07.412Z,100079.78
2022-11-04T02:02:40.911Z,100077.19
2022-11-04T02:05:08.310Z,100083.31
2022-11-04T02:07:36.163Z,100089.50
2022-11-04T02:10:03.723Z,100092.16
2022-11-04T02:12:49.501Z,100086.91
2022-11-04T02:15:37.310Z,100092.19
2022-11-04T02:18:57.711Z,100101.84
2022-11-04T02:21:57.506Z,100101.00
2022-11-04T02:25:19.710Z,100101.91
2022-11-04T02:28:14.061Z,100101.88
2022-11-04T02:31:13.917Z,100100.19
2022-11-04T02:33:52.928Z,100107.22
2022-11-04T02:36:27.967Z,100115.09
2022-11-04T02:39:41.077Z,100103.75
2022-11-04T02:42:25.042Z,100109.00
2022-11-04T02:45:24.818Z,100103.75
2022-11-04T02:48:27.482Z,100099.41
2022-11-04T02:51:13.213Z,100101.19
2022-11-04T02:53:53.716Z,100095.94
2022-11-04T02:56:23.564Z,100102.06
2022-11-04T02:59:01.053Z,100096.00
2022-11-04T03:01:34.756Z,100096.00
2022-11-04T03:04:22.747Z,100098.66
2022-11-04T03:06:54.099Z,100103.00
2022-11-04T03:09:23.022Z,100102.16
2022-11-04T03:11:58.473Z,100115.28
2022-11-04T03:14:39.299Z,100112.69
2022-11-04T03:17:18.327Z,100109.19
2022-11-04T03:19:57.386Z,100110.09
2022-11-04T03:22:33.222Z,100112.66
2022-11-04T03:25:02.321Z,100109.16
2022-11-04T03:27:44.217Z,100104.78
2022-11-04T03:30:20.849Z,100106.56
2022-11-04T03:33:43.678Z,100099.59
2022-11-04T03:36:10.799Z,100107.47
2022-11-04T03:38:38.644Z,100103.09
2022-11-04T03:41:15.674Z,100110.97
2022-11-04T03:43:43.097Z,100109.22
2022-11-04T03:46:10.854Z,100111.84
2022-11-04T03:48:38.201Z,100114.47
2022-11-04T03:51:05.251Z,100112.72
2022-11-04T03:53:32.907Z,100119.75
2022-11-04T03:56:14.845Z,100122.38
2022-11-04T03:58:52.700Z,100115.34
2022-11-04T04:01:54.382Z,100114.50
2022-11-04T04:05:05.854Z,100111.88
2022-11-04T04:07:59.028Z,100113.63
2022-11-04T04:11:19.173Z,100113.66
2022-11-04T04:14:09.487Z,100117.16
2022-11-04T04:16:47.361Z,100120.63
2022-11-04T04:19:21.304Z,100118.91
2022-11-04T04:22:22.365Z,100124.16
2022-11-04T04:25:11.268Z,100125.94
2022-11-04T04:27:39.697Z,100126.81
2022-11-04T04:30:13.540Z,100126.78
2022-11-04T04:33:01.356Z,100130.28
2022-11-04T04:35:42.750Z,100136.41
2022-11-04T04:38:47.807Z,100134.69
2022-11-04T04:41:47.225Z,100139.06
2022-11-04T04:44:53.267Z,100134.69
2022-11-04T04:47:24.722Z,100143.44
2022-11-04T04:50:00.945Z,100136.44
2022-11-04T04:52:38.778Z,100142.59
2022-11-04T04:55:07.181Z,100151.28
2022-11-04T04:57:34.171Z,100146.94
2022-11-04T05:00:01.138Z,100148.69
2022-11-04T05:02:28.124Z,100146.97
2022-11-04T05:04:56.297Z,100155.69
2022-11-04T05:07:23.533Z,100153.94
2022-11-04T05:09:50.494Z,100148.69
2022-11-04T05:12:18.332Z,100151.31
2022-11-04T05:14:45.541Z,100151.31
2022-11-04T05:17:12.561Z,100156.53
2022-11-04T05:19:40.014Z,100157.41
2022-11-04T05:22:07.063Z,100166.16
2022-11-04T05:24:33.990Z,100172.25
2022-11-04T05:27:01.018Z,100169.63
2022-11-04T05:29:28.221Z,100174.88
2022-11-04T05:31:55.197Z,100173.97
2022-11-04T05:34:22.154Z,100180.09
2022-11-04T05:36:49.212Z,100173.06
2022-11-04T05:39:16.194Z,100180.06
2022-11-04T05:41:43.174Z,100180.03
2022-11-04T05:44:11.657Z,100180.91
2022-11-04T05:46:38.684Z,100178.28
2022-11-04T05:49:06.071Z,100181.78
2022-11-04T05:51:33.534Z,100177.47
2022-11-04T05:54:01.739Z,100186.22
2022-11-04T05:56:29.086Z,100197.56
2022-11-04T05:58:56.050Z,100191.47
2022-11-04T06:01:29.513Z,100201.97
2022-11-04T06:03:58.434Z,100201.97
2022-11-04T06:06:28.124Z,100199.34
2022-11-04T06:08:55.792Z,100204.59
2022-11-04T06:11:24.343Z,100209.84
2022-11-04T06:13:51.740Z,100211.59
2022-11-04T06:16:18.959Z,100208.97
2022-11-04T06:18:45.915Z,100212.47
2022-11-04T06:21:15.985Z,100213.34
2022-11-04T06:23:48.140Z,100219.47
2022-11-04T06:26:18.270Z,100222.09
2022-11-04T06:28:46.447Z,100226.47
2022-11-04T06:31:14.973Z,100222.94
2022-11-04T06:33:42.488Z,100233.44
2022-11-04T06:36:13.961Z,100230.81
2022-11-04T06:38:41.686Z,100226.47
2022-11-04T06:41:15.517Z,100228.22
2022-11-04T06:43:42.787Z,100232.56
2022-11-04T06:46:43.686Z,100235.22
2022-11-04T06:49:14.927Z,100237.81
2022-11-04T06:51:42.263Z,100239.56
2022-11-04T06:54:09.434Z,100252.66
2022-11-04T06:56:36.821Z,100250.03
2022-11-04T06:59:04.227Z,100257.91
2022-11-04T07:01:36.678Z,100250.91
2022-11-04T07:04:07.666Z,100249.09
2022-11-04T07:06:36.289Z,100256.09
2022-11-04T07:09:05.463Z,100254.34
2022-11-04T07:11:33.846Z,100260.44
2022-11-04T07:14:00.827Z,100266.56
2022-11-04T07:16:27.827Z,100263.88
2022-11-04T07:18:55.862Z,100279.59
2022-11-04T07:21:23.675Z,100277.84
2022-11-04T07:23:50.943Z,100271.69
2022-11-04T07:26:17.937Z,100276.09
2022-11-04T07:28:44.937Z,100277.84
2022-11-04T07:31:13.581Z,100277.81
2022-11-04T07:33:41.047Z,100282.19
2022-11-04T07:36:13.121Z,100285.66
2022-11-04T07:38:40.124Z,100290.00
2022-11-04T07:41:07.480Z,100294.41
2022-11-04T07:43:34.812Z,100286.50
2022-11-04T07:46:14.643Z,100300.47
2022-11-04T07:48:41.736Z,100301.34
2022-11-04T07:51:13.724Z,100302.19
2022-11-04T07:53:40.898Z,100310.91
2022-11-04T07:56:13.185Z,100313.47
2022-11-04T07:58:41.293Z,100322.19
2022-11-04T08:01:16.648Z,100314.22
2022-11-04T08:03:43.834Z,100315.03
2022-11-04T08:06:14.654Z,100321.13
2022-11-04T08:08:43.560Z,100322.84
2022-11-04T08:11:17.958Z,100323.72
2022-11-04T08:13:46.602Z,100328.97
2022-11-04T08:16:18.650Z,100327.22
2022-11-04T08:18:47.007Z,100327.25
2022-11-04T08:21:14.348Z,100336.94
2022-11-04T08:23:41.361Z,100334.28
2022-11-04T08:26:16.457Z,100347.34
2022-11-04T08:28:43.597Z,100349.91
2022-11-04T08:31:27.732Z,100351.53
2022-11-04T08:33:56.168Z,100357.59
2022-11-04T08:36:33.046Z,100349.53
2022-11-04T08:39:04.464Z,100360.00
2022-11-04T08:41:35.273Z,100354.72
2022-11-04T08:44:04.269Z,100351.16
2022-11-04T08:46:36.183Z,100351.16
2022-11-04T08:49:09.496Z,100357.31
2022-11-04T08:51:42.033Z,100357.28
2022-11-04T08:54:09.731Z,100366.09
2022-11-04T08:56:39.255Z,100365.22
2022-11-04T08:59:08.516Z,100363.47
2022-11-04T09:01:37.519Z,100372.16
2022-11-04T09:04:06.054Z,100380.63
2022-11-04T09:06:37.635Z,100387.22
2022-11-04T09:09:07.460Z,100395.59
2022-11-04T09:11:39.577Z,100392.53
2022-11-04T09:14:07.420Z,100389.63
2022-11-04T09:16:37.142Z,100400.66
2022-11-04T09:19:04.531Z,100394.19
2022-11-04T09:21:31.682Z,100401.31
2022-11-04T09:23:58.647Z,100397.97
2022-11-04T09:26:25.954Z,100402.56
2022-11-04T09:28:58.028Z,100410.69
2022-11-04T09:31:27.501Z,100418.81
2022-11-04T09:33:55.874Z,100422.44
2022-11-04T09:36:23.620Z,100428.59
2022-11-04T09:38:50.667Z,100438.19
2022-11-04T09:41:20.577Z,100433.81
2022-11-04T09:44:05.605Z,100436.31
2022-11-04T09:46:34.078Z,100438.88
2022-11-04T09:49:05.835Z,100439.66
2022-11-04T09:51:53.269Z,100438.63
2022-11-04T09:54:29.497Z,100442.81
2022-11-04T09:56:59.485Z,100446.16
2022-11-04T09:59:45.795Z,100442.50
2022-11-04T10:02:50.290Z,100452.03
2022-11-04T10:05:49.044Z,100458.97
2022-11-04T10:08:56.796Z,100459.56
2022-11-04T10:12:00.633Z,100453.06
2022-11-04T10:14:53.488Z,100457.25
2022-11-04T10:17:47.569Z,100453.63
2022-11-04T10:20:44.064Z,100462.56
2022-11-04T10:23:46.287Z,100463.56
2022-11-04T10:26:24.404Z,100475.97
2022-11-04T10:29:05.564Z,100475.94
2022-11-04T10:31:37.276Z,100482.91
2022-11-04T10:34:21.335Z,100481.94
2022-11-04T10:36:49.720Z,100486.31
2022-11-04T10:39:35.379Z,100489.84
2022-11-04T10:42:04.046Z,100494.28
2022-11-04T10:44:35.517Z,100496.03
2022-11-04T10:47:05.269Z,100498.59
2022-11-04T10:50:00.235Z,100501.06
2022-11-04T10:52:35.402Z,100499.00
2022-11-04T10:55:02.399Z,100491.66
2022-11-04T10:57:30.908Z,100481.47
2022-11-04T11:00:05.448Z,100485.66
2022-11-04T11:02:41.362Z,100488.31
2022-11-04T11:05:18.845Z,100485.00
2022-11-04T11:07:49.541Z,100489.78
2022-11-04T11:10:36.878Z,100486.59
2022-11-04T11:13:08.048Z,100488.75
2022-11-04T11:15:38.452Z,100488.16
2022-11-04T11:18:08.440Z,100494.56
2022-11-04T11:20:37.898Z,100500.00
2022-11-04T11:23:09.876Z,100498.28
2022-11-04T11:25:45.613Z,100501.13
2022-11-04T11:28:24.945Z,100503.75
2022-11-04T11:30:52.325Z,100504.53
2022-11-04T11:33:29.529Z,100499.25
2022-11-04T11:36:26.935Z,100498.38
2022-11-04T11:38:56.586Z,100500.03
2022-11-04T11:41:31.305Z,100503.63
2022-11-04T11:44:50.586Z,100500.44
2022-11-04T11:47:22.841Z,100500.81
2022-11-04T11:50:18.014Z,100504.44
2022-11-04T11:52:48.003Z,100512.75
2022-11-04T11:55:36.903Z,100521.53
2022-11-04T12:01:39.285Z,100515.84
2022-11-04T12:10:59.839Z,100536.53
2022-11-04T12:13:53.218Z,100539.41
2022-11-04T12:16:57.334Z,100548.31
2022-11-04T12:19:32.932Z,100545.66
2022-11-04T12:22:10.233Z,100536.00
2022-11-04T12:25:08.299Z,100541.97
2022-11-04T12:28:22.419Z,100539.09
2022-11-04T12:31:16.935Z,100551.19
2022-11-04T12:34:06.321Z,100556.25
2022-11-04T12:37:11.632Z,100558.75
2022-11-04T12:39:56.749Z,100556.88
2022-11-04T12:43:06.718Z,100561.06
2022-11-04T12:46:01.405Z,100564.38
2022-11-04T12:48:57.406Z,100571.47
2022-11-04T12:51:52.589Z,100561.81
2022-11-04T12:54:29.797Z,100568.31
2022-11-04T12:57:32.996Z,100580.84
2022-11-04T13:00:24.845Z,100595.88
2022-11-04T13:03:12.717Z,100599.28
2022-11-04T13:06:14.137Z,100592.19
2022-11-04T13:09:15.000Z,100591.41
2022-11-04T13:12:19.812Z,100582.69
2022-11-04T13:15:13.463Z,100594.34
2022-11-04T13:17:43.641Z,100595.44
2022-11-04T13:20:31.484Z,100597.28
2022-11-04T13:23:04.179Z,100598.16
2022-11-04T13:25:44.752Z,100604.34
2022-11-04T13:28:15.260Z,100617.56
2022-11-04T13:31:30.933Z,100622.81
2022-11-04T13:34:03.449Z,100634.19
2022-11-04T13:36:59.364Z,100639.31
2022-11-04T13:39:39.243Z,100645.34
2022-11-04T13:42:30.165Z,100645.25
2022-11-04T13:45:04.486Z,100647.81
2022-11-04T13:47:38.183Z,100646.03
2022-11-04T13:50:06.977Z,100642.56
2022-11-04T13:52:52.358Z,100648.75
2022-11-04T13:55:24.209Z,100645.25
2022-11-04T13:57:54.493Z,100644.34
2022-11-04T14:00:27.678Z,100654.06
2022-11-04T14:03:00.279Z,100657.56
2022-11-04T14:05:31.236Z,100662.88
2022-11-04T14:08:01.259Z,100663.78
2022-11-04T14:10:50.112Z,100667.31
2022-11-04T14:13:35.219Z,100676.13
2022-11-04T14:16:02.962Z,100674.22
2022-11-04T14:18:42.540Z,100681.06
2022-11-04T14:21:25.966Z,100680.97
2022-11-04T14:24:00.351Z,100683.81
2022-11-04T14:26:42.187Z,100696.34
2022-11-04T14:29:20.536Z,100691.19
2022-11-04T14:31:52.519Z,100705.44
2022-11-04T14:34:37.685Z,100703.78
2022-11-04T14:37:28.969Z,100709.22
2022-11-04T14:40:00.160Z,100709.38
2022-11-04T14:42:50.950Z,100711.22
2022-11-04T14:45:34.986Z,100727.19
2022-11-04T14:48:18.425Z,100728.25
2022-11-04T14:50:52.392Z,100734.44
2022-11-04T14:53:33.187Z,100757.38
2022-11-04T14:56:24.147Z,100743.31
2022-11-04T14:59:03.517Z,100743.38
2022-11-04T15:01:35.638Z,100746.13
2022-11-04T15:04:15.071Z,100750.63
2022-11-04T15:06:57.689Z,100755.09
2022-11-04T15:09:31.902Z,100760.44
2022-11-04T15:12:30.342Z,100771.91
2022-11-04T15:14:59.481Z,100775.47
2022-11-04T15:17:31.931Z,100779.91
2022-11-04T15:20:02.130Z,100785.22
2022-11-04T15:22:30.514Z,100785.28
2022-11-04T15:25:05.915Z,100790.53
2022-11-04T15:27:34.635Z,100795.84
2022-11-04T15:30:04.489Z,100797.56
2022-11-04T15:32:32.202Z,100801.16
2022-11-04T15:34:59.827Z,100806.47
2022-11-04T15:37:29.144Z,100815.34
2022-11-04T15:39:58.365Z,100814.50
2022-11-04T15:42:45.575Z,100812.84
2022-11-04T15:45:46.563Z,100805.06
2022-11-04T15:48:29.038Z,100805.97
2022-11-04T15:51:23.608Z,100797.25
2022-11-04T15:53:50.570Z,100805.19
2022-11-04T15:56:26.013Z,100804.38
2022-11-04T15:58:54.682Z,100810.56
2022-11-04T16:01:22.596Z,100810.59
2022-11-04T16:04:01.072Z,100815.00
2022-11-04T16:06:39.659Z,100822.97
2022-11-04T16:09:21.474Z,100823.91
2022-11-04T16:12:08.777Z,100826.59
2022-11-04T16:14:35.846Z,100827.50
2022-11-04T16:17:03.373Z,100833.66
2022-11-04T16:19:32.287Z,100844.25
2022-11-04T16:22:07.273Z,100850.44
2022-11-04T16:24:38.939Z,100858.38
2022-11-04T16:27:11.371Z,100863.69
2022-11-04T16:29:42.633Z,100869.88
2022-11-04T16:32:18.333Z,100864.59
2022-11-04T16:34:48.878Z,100874.28
2022-11-04T16:37:15.835Z,100877.81
2022-11-04T16:39:45.389Z,100885.72
2022-11-04T16:42:14.695Z,100891.88
2022-11-04T16:44:48.519Z,100904.16
2022-11-04T16:47:15.637Z,100907.69
2022-11-04T16:49:42.635Z,100903.31
2022-11-04T16:52:16.080Z,100908.59
2022-11-04T16:54:43.042Z,100912.13
2022-11-04T16:57:13.782Z,100914.75
2022-11-04T16:59:41.530Z,100910.34
2022-11-04T17:02:31.759Z,100908.59
2022-11-04T17:04:59.134Z,100913.00
2022-11-04T17:07:40.721Z,100922.66
2022-11-04T17:10:22.145Z,100923.53
2022-11-04T17:12:49.779Z,100933.19
2022-11-04T17:15:17.616Z,100926.16
2022-11-04T17:17:45.099Z,100935.81
2022-11-04T17:20:17.651Z,100943.72
2022-11-04T17:22:47.062Z,100948.97
2022-11-04T17:25:21.489Z,100950.75
2022-11-04T17:27:49.075Z,100948.13
2022-11-04T17:30:17.478Z,100957.78
2022-11-04T17:32:45.588Z,100963.91
2022-11-04T17:35:13.163Z,100959.53
2022-11-04T17:37:40.768Z,100970.94
2022-11-04T17:40:09.545Z,100975.34
2022-11-04T17:42:55.136Z,100968.31
2022-11-04T17:45:22.137Z,100969.19
2022-11-04T17:47:49.203Z,100966.56
2022-11-04T17:50:16.271Z,100966.53
2022-11-04T17:52:44.139Z,100968.31
2022-11-04T17:55:16.722Z,100965.66
2022-11-04T17:57:45.008Z,100975.31
2022-11-04T18:00:14.274Z,100981.47
2022-11-04T18:02:42.851Z,100994.66
2022-11-04T18:05:10.127Z,100992.91
2022-11-04T18:07:37.282Z,101002.56
2022-11-04T18:10:05.390Z,100999.06
2022-11-04T18:12:38.507Z,100994.66
2022-11-04T18:15:11.507Z,100997.31
2022-11-04T18:17:43.914Z,101003.47
2022-11-04T18:20:15.397Z,100998.19
2022-11-04T18:22:46.968Z,100997.31
2022-11-04T18:25:14.160Z,101006.97
2022-11-04T18:27:41.360Z,101006.97
2022-11-04T18:30:10.042Z,101008.69
2022-11-04T18:32:37.070Z,101018.34
2022-11-04T18:35:04.476Z,101019.22
2022-11-04T18:37:31.827Z,101034.16
2022-11-04T18:39:58.829Z,101033.25
2022-11-04T18:42:25.938Z,101034.13
2022-11-04T18:44:52.911Z,101029.72
2022-11-04T18:47:20.300Z,101028.84
2022-11-04T18:49:48.008Z,101037.59
2022-11-04T18:52:15.054Z,101032.34
2022-11-04T18:54:45.712Z,101034.97
2022-11-04T18:57:12.870Z,101040.22
2022-11-04T18:59:40.117Z,101042.84
2022-11-04T19:02:08.476Z,101041.94
2022-11-04T19:04:35.578Z,101045.44
2022-11-04T19:07:04.392Z,101049.81
2022-11-04T19:09:46.005Z,101055.91
2022-11-04T19:12:32.573Z,101059.41
2022-11-04T19:14:59.581Z,101055.88
2022-11-04T19:17:26.568Z,101054.09
2022-11-04T19:19:53.634Z,101062.81
2022-11-04T19:22:20.612Z,101058.38
2022-11-04T19:24:47.642Z,101075.91
2022-11-04T19:27:14.783Z,101075.88
2022-11-04T19:29:41.761Z,101079.38
2022-11-04T19:32:13.741Z,101080.19
2022-11-04T19:34:41.798Z,101092.47
2022-11-04T19:37:09.186Z,101088.03
2022-11-04T19:39:36.530Z,101090.59
2022-11-04T19:42:23.071Z,101088.78
2022-11-04T19:44:50.126Z,101090.50
2022-11-04T19:47:17.289Z,101093.06
2022-11-04T19:49:44.415Z,101093.09
2022-11-04T19:52:11.937Z,101100.00
2022-11-04T19:54:39.315Z,101107.88
2022-11-04T19:57:10.395Z,101113.91
2022-11-04T19:59:40.505Z,101118.22
2022-11-04T20:02:07.605Z,101130.47
2022-11-04T20:04:34.771Z,101131.28
2022-11-04T20:07:01.921Z,101129.47
2022-11-04T20:09:28.901Z,101134.69
2022-11-04T20:12:14.580Z,101143.34
2022-11-04T20:14:41.533Z,101143.28
2022-11-04T20:17:08.474Z,101144.97
2022-11-04T20:19:35.466Z,101142.28
2022-11-04T20:22:03.432Z,101142.22
2022-11-04T20:24:30.647Z,101155.28
2022-11-04T20:26:57.884Z,101149.09
2022-11-04T20:29:24.887Z,101155.19
2022-11-04T20:31:51.874Z,101146.38
2022-11-04T20:34:18.854Z,101152.47
2022-11-04T20:36:45.829Z,101162.97
2022-11-04T20:39:15.949Z,101170.75
2022-11-04T20:41:44.412Z,101171.63
2022-11-04T20:44:13.099Z,101181.19
2022-11-04T20:46:41.058Z,101183.81
2022-11-04T20:49:08.573Z,101190.75
2022-11-04T20:51:48.822Z,101194.22
2022-11-04T20:54:19.428Z,101193.31
2022-11-04T20:56:46.909Z,101187.19
2022-11-04T20:59:14.402Z,101188.00
2022-11-04T21:01:44.694Z,101187.97
2022-11-04T21:04:18.268Z,101191.44
2022-11-04T21:06:50.253Z,101198.41
2022-11-04T21:09:20.145Z,101205.38
2022-11-04T21:11:47.585Z,101209.69
2022-11-04T21:14:17.060Z,101214.88
2022-11-04T21:16:44.206Z,101217.47
2022-11-04T21:19:12.183Z,101220.06
2022-11-04T21:21:42.527Z,101226.16
2022-11-04T21:24:12.805Z,101231.41
2022-11-04T21:26:40.249Z,101229.66
2022-11-04T21:29:12.506Z,101225.28
2022-11-04T21:31:39.762Z,101222.59
2022-11-04T21:34:06.919Z,101234.81
2022-11-04T21:36:34.171Z,101239.13
2022-11-04T21:39:01.465Z,101245.16
2022-11-04T21:41:33.866Z,101251.22
2022-11-04T21:44:03.039Z,101257.25
2022-11-04T21:46:32.898Z,101253.78
2022-11-04T21:49:01.096Z,101266.03
2022-11-04T21:51:31.387Z,101276.63
2022-11-04T21:53:59.861Z,101280.16
2022-11-04T21:56:34.052Z,101284.56
2022-11-04T21:59:01.745Z,101287.19
2022-11-04T22:01:30.698Z,101284.56
2022-11-04T22:04:01.045Z,101285.44
2022-11-04T22:06:33.996Z,101286.34
2022-11-04T22:09:01.965Z,101286.38
2022-11-04T22:11:31.470Z,101281.13
2022-11-04T22:14:01.754Z,101288.16
2022-11-04T22:16:32.322Z,101296.06
2022-11-04T22:19:02.436Z,101305.72
2022-11-04T22:21:31.503Z,101305.81
2022-11-04T22:23:59.272Z,101305.91
2022-11-04T22:26:32.527Z,101302.53
2022-11-04T22:29:00.286Z,101313.16
2022-11-04T22:31:31.130Z,101302.78
2022-11-04T22:33:59.780Z,101309.91
2022-11-04T22:36:28.355Z,101305.63
2022-11-04T22:38:56.262Z,101300.50
2022-11-04T22:41:31.434Z,101310.19
2022-11-04T22:43:59.471Z,101312.00
2022-11-04T22:46:30.278Z,101311.16
2022-11-04T22:48:59.573Z,101305.06
2022-11-04T22:51:26.733Z,101308.59
2022-11-04T22:54:00.006Z,101305.13
2022-11-04T22:56:28.600Z,101309.50
2022-11-04T22:58:56.074Z,101315.66
2022-11-04T23:01:23.579Z,101306.91
2022-11-04T23:03:52.106Z,101319.16
2022-11-04T23:06:19.363Z,101318.28
2022-11-04T23:08:46.451Z,101314.75
2022-11-04T23:11:39.780Z,101327.88
2022-11-04T23:14:45.172Z,101326.13
2022-11-04T23:17:41.494Z,101326.13
2022-11-04T23:20:14.578Z,101326.06
2022-11-04T23:23:01.042Z,101329.56
2022-11-04T23:25:28.369Z,101323.41
2022-11-04T23:28:14.580Z,101321.66
2022-11-04T23:30:50.804Z,101328.66
2022-11-04T23:33:17.870Z,101319.88
2022-11-04T23:36:07.019Z,101319.81
2022-11-04T23:38:35.479Z,101323.25
2022-11-04T23:41:25.166Z,101320.56
2022-11-04T23:43:52.463Z,101316.13
2022-11-04T23:46:43.091Z,101300.28
2022-11-04T23:49:31.792Z,101299.28
2022-11-04T23:52:17.733Z,101314.88
2022-11-04T23:55:03.292Z,101314.75
2022-11-04T23:57:49.047Z,101312.00
